PORT of AGATHONISSI

Land: Greece Land: Greece [GR]
Latitud / Longitud: 37.452475° / 26.966° Visa på kartan
Lokal tid:  [UTC +3]
UN/LOCODE: GRAGN

Fartygsnamn
Ankomst (UTC)
Ankomst (LT)
Avgång (UTC)
Avgång (LT)
Vessel Type: Passagerarfartyg  NISOS KALYMNOS 2014-08-29 13:36:00 2014-08-29 16:36:00 2014-08-29 15:33:00 2014-08-29 18:33:00
Vessel Type: Yachts och övrigt  CLIA 2014-08-28 08:08:00 2014-08-28 11:08:00 2014-08-28 18:06:00 2014-08-28 21:06:00
Vessel Type: Yachts och övrigt  CLOUD ATLAS 2014-08-23 14:16:00 2014-08-23 17:16:00 2014-08-27 07:08:00 2014-08-27 10:08:00
Vessel Type: Passagerarfartyg  NISOS KALYMNOS 2014-08-26 13:38:00 2014-08-26 16:38:00 2014-08-26 14:10:00 2014-08-26 17:10:00
Vessel Type: Tankfartyg  MARIA 2014-08-26 00:18:00 2014-08-26 03:18:00 2014-08-26 09:21:00 2014-08-26 12:21:00
Vessel Type: Yachts och övrigt  CHRISTINA 2014-08-25 13:30:00 2014-08-25 16:30:00 2014-08-26 08:36:00 2014-08-26 11:36:00
Vessel Type: Passagerarfartyg  ANNAEXPRESS 2014-08-25 12:43:00 2014-08-25 15:43:00 2014-08-25 12:58:00 2014-08-25 15:58:00
Vessel Type: Passagerarfartyg  NISOS KALYMNOS 2014-08-24 15:07:00 2014-08-24 18:07:00 2014-08-24 16:25:00 2014-08-24 19:25:00
Vessel Type: Tankfartyg  CHRISANTHI 2014-08-24 06:10:00 2014-08-24 09:10:00 2014-08-24 07:47:00 2014-08-24 10:47:00
Vessel Type: Bogserbåt, lotsbåt etc  PLS 140 2014-08-24 01:17:00 2014-08-24 04:17:00 2014-08-24 06:03:00 2014-08-24 09:03:00

Väntade ankomster


Fartygsnamn
Scheduled Arrival (UTC)
Schemalagd ankomst (lokal tid)
Beräknad ankomst (UTC)
Beräknad ankomst (lokal tid)
Inga uppgifter funna

Wind Forecast


    
Tid (UTC)
Hastighet
Direction
Temperature
2014-09-02 00:00:00 10 knots 296° 24°C
2014-09-02 03:00:00 3 knots 315° 24°C
2014-09-02 06:00:00 5 knots 166° 24°C
2014-09-02 09:00:00 9 knots 200° 24°C
2014-09-02 12:00:00 12 knots 213° 24°C
2014-09-02 15:00:00 11 knots 200° 25°C
2014-09-02 18:00:00 11 knots 177° 25°C
2014-09-02 21:00:00 12 knots 163° 25°C
2014-09-03 00:00:00 14 knots 152° 25°C
2014-09-03 03:00:00 15 knots 158° 24°C
2014-09-03 06:00:00 16 knots 167° 25°C
2014-09-03 09:00:00 18 knots 177° 25°C
2014-09-03 12:00:00 16 knots 188° 25°C
2014-09-03 15:00:00 13 knots 181° 25°C
2014-09-03 18:00:00 12 knots 163° 25°C
2014-09-03 21:00:00 12 knots 164° 25°C

NO_PHOTO

No Photos for this port. Be the first to upload one!